Time;durP1;ratioP1;P1;durP2;ratioP2;P2;SDS_P1;SDS_P2;PMS_P1;PMS_P2;Temp;Humidity;BMP_temperature;BMP_pressure;BME280_temperature;BME280_humidity;BME280_pressure;Samples;Min_cycle;Max_cycle;Signal;HPM_P1;HPM_P2
2022/12/14 00:07:48;;;;;;;2.92;1.60;;;-2.60;99.90;;;;;;20015027;24;20578;-58
2022/12/14 00:17:49;;;;;;;1.95;1.10;;;-2.60;99.90;;;;;;20055697;24;20066;-48
2022/12/14 00:27:51;;;;;;;1.85;0.93;;;-2.60;99.90;;;;;;20051599;24;20132;-58
2022/12/14 00:37:53;;;;;;;1.67;0.70;;;-2.60;99.90;;;;;;20049179;24;20109;-55
2022/12/14 00:48:02;;;;;;;1.15;0.60;;;-2.50;99.90;;;;;;20055663;24;20070;31
2022/12/14 00:58:03;;;;;;;0.40;0.30;;;-2.40;99.90;;;;;;20018106;24;20158;-58
2022/12/14 01:08:06;;;;;;;0.73;0.40;;;-2.40;99.90;;;;;;20040557;24;20422;-52
2022/12/14 01:18:07;;;;;;;0.63;0.32;;;-2.30;99.90;;;;;;20090564;24;20099;-57
2022/12/14 01:28:09;;;;;;;1.23;0.50;;;-2.30;99.90;;;;;;20069908;24;20173;-56
2022/12/14 01:38:10;;;;;;;0.93;0.47;;;-2.30;99.90;;;;;;20069716;24;20746;-57
2022/12/14 01:48:13;;;;;;;0.80;0.40;;;-2.30;99.90;;;;;;20025341;24;20070;-58
2022/12/14 01:58:21;;;;;;;0.70;0.40;;;-2.20;99.90;;;;;;20039427;24;20067;-56
2022/12/14 02:08:24;;;;;;;0.90;0.60;;;-2.20;99.90;;;;;;20061985;24;20078;-57
2022/12/14 02:18:29;;;;;;;0.80;0.50;;;-2.20;99.90;;;;;;20042526;24;20080;-55
2022/12/14 02:28:48;;;;;;;0.80;0.30;;;-2.30;99.90;;;;;;20016123;24;1345247;-58
2022/12/14 02:39:24;;;;;;;0.70;0.40;;;-2.30;99.90;;;;;;20036610;24;20621;-57
2022/12/14 02:49:53;;;;;;;1.08;0.60;;;-2.30;99.90;;;;;;20052824;24;20062;-56
2022/12/14 02:59:59;;;;;;;1.13;0.70;;;-2.30;99.90;;;;;;20072546;24;20833;-54
2022/12/14 03:10:36;;;;;;;0.65;0.30;;;-2.20;99.90;;;;;;20041934;24;20580;-56
2022/12/14 03:20:41;;;;;;;1.17;0.52;;;-2.30;99.90;;;;;;20051701;24;20074;-55
2022/12/14 03:30:47;;;;;;;0.75;0.40;;;-2.30;99.90;;;;;;20012001;24;20155;-53
2022/12/14 03:41:09;;;;;;;0.30;0.28;;;-2.30;99.90;;;;;;20017038;24;20092;-57
2022/12/14 03:51:22;;;;;;;0.20;0.20;;;-2.20;99.90;;;;;;20102001;24;20062;-52
2022/12/14 04:01:38;;;;;;;0.45;0.25;;;-2.00;99.90;;;;;;20063799;24;20080;-57
2022/12/14 04:22:13;;;;;;;0.30;0.20;;;-2.00;99.90;;;;;;20039743;24;20518;-59
2022/12/14 04:32:14;;;;;;;0.50;0.20;;;-2.00;99.90;;;;;;20036063;24;20051;-58
2022/12/14 04:42:19;;;;;;;0.20;0.20;;;-1.90;99.90;;;;;;20048979;24;20042;-63
2022/12/14 04:52:40;;;;;;;0.40;0.22;;;-2.00;99.90;;;;;;20022394;24;20522;-60
2022/12/14 05:02:44;;;;;;;;;;;-2.00;99.90;;;;;;19997671;24;20059;-56
2022/12/14 05:13:30;;;;;;;0.10;0.08;;;-2.00;99.90;;;;;;20052225;24;19983;-59
2022/12/14 05:23:32;;;;;;;0.00;0.00;;;-2.00;99.90;;;;;;20005673;24;20108;-53
2022/12/14 05:33:33;;;;;;;0.00;0.00;;;-2.00;99.90;;;;;;20061858;24;20139;-60
2022/12/14 05:43:35;;;;;;;0.00;0.00;;;-1.90;99.90;;;;;;20069075;24;20547;-56
2022/12/14 05:53:38;;;;;;;0.03;0.00;;;-1.90;99.90;;;;;;20067321;24;20443;-59
2022/12/14 06:03:41;;;;;;;0.10;0.00;;;-1.90;99.90;;;;;;20065649;24;20054;-58
2022/12/14 06:13:44;;;;;;;0.10;0.00;;;-2.00;99.90;;;;;;20023992;24;20486;-54
2022/12/14 06:23:46;;;;;;;0.20;0.08;;;-2.10;99.90;;;;;;20062693;24;20362;-59
2022/12/14 06:33:48;;;;;;;0.10;0.00;;;-2.10;99.90;;;;;;20857701;24;20115;-56
2022/12/14 06:43:51;;;;;;;0.10;0.05;;;-2.00;99.90;;;;;;20059407;24;21221;-59
2022/12/14 06:53:54;;;;;;;0.00;0.00;;;-2.10;99.90;;;;;;20063607;24;20055;-51
2022/12/14 07:03:58;;;;;;;0.28;0.10;;;-2.10;99.90;;;;;;20036504;24;20059;-56
2022/12/14 07:14:02;;;;;;;0.20;0.10;;;-2.10;99.90;;;;;;20045491;24;20525;-59
2022/12/14 07:24:03;;;;;;;0.68;0.00;;;-1.90;99.90;;;;;;20052126;24;20062;-56
2022/12/14 07:34:05;;;;;;;0.13;0.03;;;-1.90;99.90;;;;;;20057485;24;20059;-60
2022/12/14 07:44:08;;;;;;;0.00;0.00;;;-1.70;99.90;;;;;;20057513;24;20169;-57
2022/12/14 07:54:10;;;;;;;0.17;0.00;;;-1.60;99.90;;;;;;20017171;24;20055;-57
2022/12/14 08:04:17;;;;;;;0.00;0.00;;;-1.30;99.90;;;;;;20064414;24;20119;-60
2022/12/14 08:14:20;;;;;;;0.32;0.10;;;-0.90;99.90;;;;;;20039125;24;20063;-57
2022/12/14 08:24:22;;;;;;;4.85;1.40;;;-0.70;99.90;;;;;;20061236;24;20120;-62
2022/12/14 08:34:24;;;;;;;1.50;0.80;;;-0.60;99.90;;;;;;20055202;24;20068;-54
2022/12/14 08:44:25;;;;;;;0.63;0.40;;;-0.40;99.90;;;;;;20017460;24;20484;-57
2022/12/14 08:54:27;;;;;;;0.15;0.10;;;-0.30;99.90;;;;;;20061357;24;20187;-61
2022/12/14 09:04:29;;;;;;;0.00;0.00;;;-0.20;99.90;;;;;;20060285;24;20050;-52
2022/12/14 09:14:32;;;;;;;0.13;0.00;;;0.20;99.90;;;;;;20066707;24;20055;-61
2022/12/14 09:24:34;;;;;;;0.10;0.00;;;0.80;99.90;;;;;;20063769;24;20096;-54
2022/12/14 09:34:36;;;;;;;0.00;0.00;;;1.00;99.90;;;;;;20028218;24;20131;-54
2022/12/14 09:44:49;;;;;;;0.10;0.10;;;0.90;99.90;;;;;;20052564;24;20062;-61
2022/12/14 09:54:53;;;;;;;0.15;0.00;;;0.60;99.90;;;;;;20061631;24;20135;-56
2022/12/14 10:05:12;;;;;;;0.10;0.00;;;0.50;99.90;;;;;;20056087;24;20348;-59
2022/12/14 10:15:46;;;;;;;0.00;0.00;;;0.70;99.90;;;;;;17414620;29;10000523;-60
2022/12/14 10:25:57;;;;;;;0.10;0.00;;;1.20;99.90;;;;;;20025687;29;20046;-55
2022/12/14 10:35:59;;;;;;;0.00;0.00;;;1.70;99.90;;;;;;20029028;29;20042;-50
2022/12/14 10:46:30;;;;;;;0.17;0.00;;;2.70;99.90;;;;;;20030476;29;20041;-53
2022/12/14 10:56:33;;;;;;;;;;;3.40;99.90;;;;;;20033302;29;20045;-52
2022/12/14 11:06:34;;;;;;;0.40;0.20;;;4.20;99.90;;;;;;20031637;29;19917;-55
2022/12/14 11:16:38;;;;;;;0.30;0.20;;;4.40;99.90;;;;;;20029187;29;20050;-54
2022/12/14 11:26:41;;;;;;;0.30;0.15;;;4.60;99.90;;;;;;20026045;29;20051;-55
2022/12/14 11:36:43;;;;;;;0.38;0.20;;;4.50;99.90;;;;;;20044233;29;20038;-57
2022/12/14 11:46:45;;;;;;;0.10;0.10;;;4.40;99.90;;;;;;20030926;29;20090;-51
2022/12/14 11:56:50;;;;;;;0.10;0.00;;;3.40;99.90;;;;;;20028645;29;20178;-50
2022/12/14 12:06:52;;;;;;;0.65;0.20;;;2.80;99.90;;;;;;20027296;29;20270;-56
2022/12/14 12:16:56;;;;;;;0.10;0.00;;;3.50;99.90;;;;;;20023685;29;20038;-53
2022/12/14 12:27:10;;;;;;;0.77;0.08;;;3.60;99.90;;;;;;20007790;29;20033;-52
2022/12/14 12:37:19;;;;;;;0.10;0.10;;;2.70;99.90;;;;;;20029850;29;20082;-54
2022/12/14 12:47:59;;;;;;;1.38;0.47;;;2.70;99.90;;;;;;20054012;29;20094;-56
2022/12/14 12:58:03;;;;;;;0.68;0.25;;;2.90;99.90;;;;;;20044085;29;20062;-55
2022/12/14 13:08:27;;;;;;;0.38;0.20;;;2.80;99.90;;;;;;20038143;29;20117;-56
2022/12/14 13:18:47;;;;;;;0.95;0.40;;;2.70;99.90;;;;;;20039687;29;20094;-55
2022/12/14 13:29:19;;;;;;;1.23;0.33;;;2.20;99.90;;;;;;20034725;29;20442;-54
2022/12/14 13:39:36;;;;;;;0.43;0.20;;;2.50;99.90;;;;;;20036492;29;20038;-51
2022/12/14 13:49:38;;;;;;;0.80;0.20;;;2.50;99.90;;;;;;20035772;29;20030;-55
2022/12/14 13:59:46;;;;;;;1.20;0.40;;;2.10;99.90;;;;;;20038243;29;20041;-53
2022/12/14 14:09:54;;;;;;;0.57;0.30;;;1.50;99.90;;;;;;20032174;29;20429;-55
2022/12/14 14:19:58;;;;;;;0.70;0.40;;;1.40;99.90;;;;;;20034932;29;20557;-55
2022/12/14 14:30:00;;;;;;;0.55;0.30;;;1.40;99.90;;;;;;20032522;29;20038;-53
2022/12/14 14:40:11;;;;;;;2.13;1.30;;;0.60;99.90;;;;;;20034056;29;20042;-53
2022/12/14 14:50:13;;;;;;;3.58;2.00;;;0.20;99.90;;;;;;20021758;29;20118;-55
2022/12/14 15:00:15;;;;;;;1.67;0.90;;;-0.20;99.90;;;;;;20034095;29;20041;-54
2022/12/14 15:10:40;;;;;;;2.85;1.27;;;-0.70;99.90;;;;;;20011663;29;20130;-51
2022/12/14 15:20:54;;;;;;;0.50;0.20;;;-1.30;99.90;;;;;;20026360;29;20049;-54
2022/12/14 15:30:57;;;;;;;1.15;0.20;;;-1.70;99.90;;;;;;20032233;29;20446;-53
2022/12/14 15:41:11;;;;;;;0.98;0.20;;;-2.10;99.90;;;;;;20022301;29;20042;-52
2022/12/14 15:51:17;;;;;;;0.45;0.20;;;-2.40;99.90;;;;;;20019821;29;20068;-53
2022/12/14 16:01:45;;;;;;;0.98;0.40;;;-2.70;99.90;;;;;;20030680;29;20033;-52
2022/12/14 16:11:51;;;;;;;0.38;0.20;;;-3.10;99.90;;;;;;20374611;23;20054;-48
2022/12/14 16:22:17;;;;;;;0.30;0.20;;;-3.40;99.90;;;;;;20143377;23;20058;-54
2022/12/14 16:32:21;;;;;;;0.20;0.20;;;-3.40;99.90;;;;;;20052289;24;20095;-58
2022/12/14 16:42:25;;;;;;;0.52;0.20;;;-3.50;99.90;;;;;;20005630;29;20114;-56
2022/12/14 16:52:33;;;;;;;0.20;0.10;;;-3.50;99.90;;;;;;20009488;29;20090;-55
2022/12/14 17:02:46;;;;;;;9.63;2.75;;;-3.70;99.90;;;;;;20017723;29;20506;-57
2022/12/14 17:12:48;;;;;;;1.70;0.75;;;-3.90;99.90;;;;;;20005773;29;20106;-56
2022/12/14 17:22:52;;;;;;;3.67;2.20;;;-4.10;99.90;;;;;;20017405;29;20042;-56
2022/12/14 17:32:56;;;;;;;0.90;0.40;;;-4.20;99.90;;;;;;20016409;29;20058;-54
2022/12/14 17:42:58;;;;;;;1.20;0.40;;;-4.30;99.90;;;;;;20029168;29;20038;-59
2022/12/14 17:53:00;;;;;;;0.82;0.40;;;-4.40;99.90;;;;;;20021600;29;20038;-55
2022/12/14 18:03:03;;;;;;;1.08;0.40;;;-4.40;99.90;;;;;;20027561;29;20095;-56
2022/12/14 18:13:05;;;;;;;2.25;0.40;;;-4.40;99.90;;;;;;20015974;29;20030;-54
2022/12/14 18:23:16;;;;;;;0.93;0.43;;;-4.50;99.90;;;;;;20025262;29;20041;-59
2022/12/14 18:33:21;;;;;;;0.65;0.40;;;-4.60;99.90;;;;;;20021795;29;20042;-54
2022/12/14 18:43:25;;;;;;;1.10;0.50;;;-4.70;99.90;;;;;;20015722;29;20181;-55
2022/12/14 18:53:27;;;;;;;1.00;0.57;;;-4.80;99.90;;;;;;20021056;29;20396;-57
2022/12/14 19:03:31;;;;;;;1.63;0.60;;;-4.80;99.90;;;;;;20018349;29;20084;-57
2022/12/14 19:13:32;;;;;;;0.85;0.50;;;-4.90;99.90;;;;;;20013059;29;20045;-54
2022/12/14 19:23:34;;;;;;;2.15;0.50;;;-5.00;99.90;;;;;;20015580;29;20127;-57
2022/12/14 19:33:37;;;;;;;0.70;0.40;;;-4.90;99.90;;;;;;20022435;29;20098;-55
2022/12/14 19:43:43;;;;;;;1.00;0.40;;;-4.70;99.90;;;;;;20015124;29;20046;-57
2022/12/14 19:53:46;;;;;;;0.85;0.40;;;-4.60;99.90;;;;;;20010504;29;20042;-55
2022/12/14 20:03:49;;;;;;;0.68;0.35;;;-4.70;99.90;;;;;;20011714;29;20114;-55
2022/12/14 20:13:54;;;;;;;0.93;0.40;;;-4.50;99.90;;;;;;20018641;29;20041;-54
2022/12/14 20:23:58;;;;;;;0.90;0.40;;;-4.60;99.90;;;;;;20005716;29;20122;-56
2022/12/14 20:34:02;;;;;;;0.52;0.30;;;-4.90;99.90;;;;;;20023830;29;20144;-55
2022/12/14 20:44:14;;;;;;;0.68;0.30;;;-4.90;99.90;;;;;;20010225;29;20497;-56
2022/12/14 20:54:18;;;;;;;0.55;0.25;;;-4.80;99.90;;;;;;20013688;29;20046;-55
2022/12/14 21:04:20;;;;;;;0.60;0.28;;;-4.80;99.90;;;;;;20017584;29;20038;-52
2022/12/14 21:14:25;;;;;;;0.65;0.25;;;-4.40;99.90;;;;;;20025602;29;20033;-60
2022/12/14 21:24:27;;;;;;;0.80;0.20;;;-4.30;99.90;;;;;;20020554;29;20106;-57
2022/12/14 21:34:30;;;;;;;0.35;0.10;;;-4.40;99.90;;;;;;20029076;29;20501;-57
2022/12/14 21:44:33;;;;;;;1.95;0.20;;;-4.30;99.90;;;;;;20024657;29;20041;-56
2022/12/14 21:54:36;;;;;;;0.47;0.20;;;-4.10;99.90;;;;;;20029735;29;20038;-54
2022/12/14 22:04:37;;;;;;;0.30;0.10;;;-4.10;99.90;;;;;;20009506;29;20110;-55
2022/12/14 22:14:39;;;;;;;1.38;0.10;;;-4.00;99.90;;;;;;20018114;29;20050;-58
2022/12/14 22:24:42;;;;;;;0.30;0.10;;;-4.10;99.90;;;;;;20018306;29;20115;-57
2022/12/14 22:34:44;;;;;;;0.10;0.10;;;-3.80;99.90;;;;;;20019907;29;20034;-57
2022/12/14 22:44:47;;;;;;;0.20;0.10;;;-3.60;99.90;;;;;;20017825;29;20095;-56
2022/12/14 22:54:49;;;;;;;0.73;0.20;;;-3.70;99.90;;;;;;20020451;29;20045;-57
2022/12/14 23:04:51;;;;;;;0.30;0.10;;;-3.90;99.90;;;;;;20018113;29;20481;-57
